Time;durP1;ratioP1;P1;durP2;ratioP2;P2;SDS_P1;SDS_P2;PMS_P1;PMS_P2;Temp;Humidity;BMP_temperature;BMP_pressure;BME280_temperature;BME280_humidity;BME280_pressure;Samples;Min_cycle;Max_cycle;Signal;HPM_P1;HPM_P2
2023/11/02 00:02:26;;;;;;;0.30;0.30;;;10.90;99.90;;;;;;5029503;28;20207;-88
2023/11/02 00:04:53;;;;;;;1.00;0.47;;;10.90;99.90;;;;;;5030519;28;20190;-89
2023/11/02 00:07:19;;;;;;;0.97;0.97;;;10.90;99.90;;;;;;5013039;28;20214;-90
2023/11/02 00:09:44;;;;;;;0.70;0.40;;;10.90;99.90;;;;;;5030798;28;20592;-90
2023/11/02 00:12:26;;;;;;;0.67;0.67;;;10.90;99.90;;;;;;5031752;28;20214;-89
2023/11/02 00:22:11;;;;;;;0.60;0.60;;;10.80;99.90;;;;;;5029829;28;20353;-89
2023/11/02 00:24:40;;;;;;;0.70;0.70;;;10.80;99.90;;;;;;5013278;28;20335;-90
2023/11/02 00:27:07;;;;;;;0.30;0.30;;;10.80;99.90;;;;;;5013299;28;20226;-89
2023/11/02 00:29:33;;;;;;;0.37;0.37;;;10.70;99.90;;;;;;5029396;28;20311;-89
2023/11/02 00:31:59;;;;;;;0.80;0.80;;;10.70;99.90;;;;;;5030442;28;20185;-89
2023/11/02 00:34:28;;;;;;;0.40;0.40;;;10.70;99.90;;;;;;5031197;28;20218;-89
2023/11/02 00:36:55;;;;;;;11.23;1.43;;;10.70;99.90;;;;;;5015280;28;20215;-89
2023/11/02 00:39:21;;;;;;;3.70;0.30;;;10.70;99.90;;;;;;5014716;28;20260;-89
2023/11/02 00:41:47;;;;;;;8.43;1.07;;;10.70;99.90;;;;;;4998696;28;20210;-89
2023/11/02 00:44:14;;;;;;;0.53;0.53;;;10.70;99.90;;;;;;4996985;28;20277;-89
2023/11/02 00:46:40;;;;;;;0.77;0.60;;;10.60;99.90;;;;;;5016124;28;20309;-89
2023/11/02 00:49:18;;;;;;;0.70;0.50;;;10.60;99.90;;;;;;5015423;28;20248;-90
2023/11/02 00:51:58;;;;;;;0.20;0.20;;;10.60;99.90;;;;;;5031701;28;20675;-90
2023/11/02 00:54:55;;;;;;;2.23;0.30;;;10.60;99.90;;;;;;5037841;28;20562;-89
2023/11/02 00:57:26;;;;;;;0.37;0.27;;;10.60;99.90;;;;;;5008717;28;20980;-89
2023/11/02 00:59:52;;;;;;;1.13;1.07;;;10.60;99.90;;;;;;5031480;28;20206;-89
2023/11/02 01:02:18;;;;;;;0.60;0.60;;;10.60;99.90;;;;;;5017403;28;20229;-89
2023/11/02 01:05:03;;;;;;;0.20;0.20;;;10.60;99.90;;;;;;5006032;28;20248;-89
2023/11/02 01:07:29;;;;;;;0.30;0.30;;;10.60;99.90;;;;;;5033644;28;20308;-89
2023/11/02 01:10:01;;;;;;;1.27;1.17;;;10.50;99.90;;;;;;5033364;28;20247;-90
2023/11/02 01:12:29;;;;;;;0.93;0.50;;;10.50;99.90;;;;;;5049152;28;20584;-90
2023/11/02 01:14:55;;;;;;;0.20;0.20;;;10.50;99.90;;;;;;5033187;28;20770;-89
2023/11/02 01:17:31;;;;;;;0.40;0.27;;;10.60;99.90;;;;;;5033601;28;20206;-89
2023/11/02 01:20:33;;;;;;;0.30;0.30;;;10.60;99.90;;;;;;5049125;28;20182;-89
2023/11/02 01:23:04;;;;;;;2.10;0.53;;;10.60;99.90;;;;;;5030520;28;20700;-92
2023/11/02 01:25:30;;;;;;;1.70;0.63;;;10.60;99.90;;;;;;5032244;28;20212;-89
2023/11/02 01:28:06;;;;;;;0.87;0.67;;;10.60;99.90;;;;;;5031998;28;20245;-89
2023/11/02 01:30:41;;;;;;;2.93;1.60;;;10.50;99.90;;;;;;5031964;28;20218;-91
2023/11/02 01:33:36;;;;;;;0.10;0.10;;;10.60;99.90;;;;;;5048945;28;20582;-90
2023/11/02 01:36:06;;;;;;;0.53;0.50;;;10.50;99.90;;;;;;5048313;28;20698;-89
2023/11/02 01:38:33;;;;;;;0.60;0.60;;;10.50;99.90;;;;;;5048463;28;20214;-89
2023/11/02 01:41:09;;;;;;;0.40;0.40;;;10.50;99.90;;;;;;5030426;28;20187;-89
2023/11/02 01:44:10;;;;;;;1.03;0.80;;;10.50;99.90;;;;;;5032278;28;20190;-89
2023/11/02 01:47:11;;;;;;;0.77;0.77;;;10.50;99.90;;;;;;5048797;28;20205;-89
2023/11/02 01:49:48;;;;;;;0.83;0.63;;;10.50;99.90;;;;;;5031106;28;20218;-89
2023/11/02 01:52:45;;;;;;;0.20;0.20;;;10.50;99.90;;;;;;5046671;28;20215;-88
2023/11/02 01:55:30;;;;;;;0.40;0.40;;;10.50;99.90;;;;;;5047110;28;20222;-90
2023/11/02 01:58:03;;;;;;;0.27;0.27;;;10.60;99.90;;;;;;5031308;28;20238;-89
2023/11/02 02:00:56;;;;;;;0.23;0.23;;;10.50;99.90;;;;;;5047462;28;20222;-89
2023/11/02 02:03:33;;;;;;;0.37;0.37;;;10.60;99.90;;;;;;5010298;28;20690;-90
2023/11/02 02:06:08;;;;;;;2.23;0.73;;;10.60;99.90;;;;;;5030946;28;20344;-90
2023/11/02 02:08:52;;;;;;;0.87;0.40;;;10.60;99.90;;;;;;5047321;28;20218;-89
2023/11/02 02:11:41;;;;;;;0.77;0.57;;;10.70;99.90;;;;;;5046934;28;20686;-90
2023/11/02 02:14:17;;;;;;;0.27;0.27;;;10.70;99.90;;;;;;5023731;28;20241;-90
2023/11/02 02:16:51;;;;;;;0.37;0.37;;;10.70;99.90;;;;;;5031352;28;20186;-89
2023/11/02 02:19:20;;;;;;;1.03;0.63;;;10.70;99.90;;;;;;5034510;28;20671;-88
2023/11/02 02:21:59;;;;;;;0.10;0.10;;;10.80;99.90;;;;;;5047570;28;20222;-89
2023/11/02 02:24:32;;;;;;;0.47;0.43;;;10.80;99.90;;;;;;5030877;28;20771;-89
2023/11/02 02:27:29;;;;;;;0.30;0.30;;;10.80;99.90;;;;;;5046910;28;20345;-89
2023/11/02 02:30:11;;;;;;;1.27;0.30;;;10.90;99.90;;;;;;5047744;28;20218;-88
2023/11/02 02:32:52;;;;;;;0.20;0.20;;;10.90;99.90;;;;;;5046874;28;20594;-88
2023/11/02 02:35:43;;;;;;;0.20;0.20;;;10.90;99.90;;;;;;5048280;28;20233;-89
2023/11/02 02:38:18;;;;;;;0.20;0.20;;;10.90;99.90;;;;;;5047372;28;20187;-88
2023/11/02 02:41:15;;;;;;;0.83;0.57;;;10.90;99.90;;;;;;5031976;28;20542;-89
2023/11/02 02:43:43;;;;;;;0.20;0.20;;;10.90;99.90;;;;;;5017047;28;20222;-89
2023/11/02 02:46:11;;;;;;;0.23;0.23;;;10.90;99.90;;;;;;5029196;28;20672;-92
2023/11/02 02:48:38;;;;;;;0.10;0.10;;;10.90;99.90;;;;;;5029934;28;20332;-90
2023/11/02 02:51:08;;;;;;;0.97;0.93;;;10.90;99.90;;;;;;5012984;28;20207;-90
2023/11/02 02:53:38;;;;;;;0.20;0.20;;;11.00;99.90;;;;;;5030770;28;20228;-89
2023/11/02 02:56:08;;;;;;;0.23;0.23;;;11.00;99.90;;;;;;5014183;28;20555;-88
2023/11/02 02:58:50;;;;;;;0.10;0.10;;;11.00;99.90;;;;;;4997210;28;20196;-89
2023/11/02 03:01:19;;;;;;;1.00;0.30;;;11.00;99.90;;;;;;5029772;28;21234;-90
2023/11/02 03:03:47;;;;;;;0.40;0.40;;;11.00;99.90;;;;;;5029984;28;20344;-89
2023/11/02 03:06:16;;;;;;;0.20;0.20;;;11.00;99.90;;;;;;5029400;28;20219;-90
2023/11/02 03:08:43;;;;;;;0.87;0.43;;;11.00;99.90;;;;;;5028814;28;20551;-89
2023/11/02 03:11:12;;;;;;;0.40;0.40;;;11.10;99.90;;;;;;5013013;28;20214;-89
2023/11/02 03:13:40;;;;;;;2.37;0.37;;;11.00;99.90;;;;;;5013553;28;20193;-90
2023/11/02 03:16:08;;;;;;;0.33;0.20;;;11.10;99.90;;;;;;5028948;28;20223;-90
2023/11/02 03:18:38;;;;;;;0.23;0.23;;;11.00;99.90;;;;;;5026579;28;20217;-90
2023/11/02 03:21:04;;;;;;;0.50;0.43;;;11.10;99.90;;;;;;5029333;28;20210;-89
2023/11/02 03:23:53;;;;;;;0.97;0.70;;;11.00;99.90;;;;;;5028556;28;20360;-89
2023/11/02 03:26:30;;;;;;;0.30;0.30;;;11.00;99.90;;;;;;5045183;28;20743;-89
2023/11/02 03:29:14;;;;;;;0.20;0.20;;;11.00;99.90;;;;;;5011253;28;20229;-89
2023/11/02 03:32:08;;;;;;;0.20;0.20;;;11.00;99.90;;;;;;5025412;28;20635;-90
2023/11/02 03:34:57;;;;;;;0.27;0.27;;;11.10;99.90;;;;;;5003021;28;20325;-90
2023/11/02 03:37:39;;;;;;;0.33;0.30;;;11.10;99.90;;;;;;5028092;28;20318;-89
2023/11/02 03:40:29;;;;;;;0.10;0.10;;;11.10;99.90;;;;;;5010182;28;20302;-90
2023/11/02 03:43:13;;;;;;;0.50;0.50;;;11.00;99.90;;;;;;5025997;28;20227;-89
2023/11/02 03:45:57;;;;;;;0.20;0.20;;;11.00;99.90;;;;;;5027064;28;20219;-89
2023/11/02 03:48:44;;;;;;;0.13;0.13;;;11.10;99.90;;;;;;5007243;28;20218;-89
2023/11/02 03:51:09;;;;;;;0.30;0.30;;;11.00;99.90;;;;;;5008534;28;20228;-90
2023/11/02 03:54:18;;;;;;;2.13;0.50;;;11.00;99.90;;;;;;5009563;28;20218;-89
2023/11/02 03:56:47;;;;;;;0.30;0.30;;;11.10;99.90;;;;;;5012640;28;20687;-88
2023/11/02 03:59:23;;;;;;;0.40;0.40;;;11.10;99.90;;;;;;5028753;28;20663;-89
2023/11/02 04:01:51;;;;;;;0.37;0.37;;;11.10;99.90;;;;;;5010032;28;20202;-88
2023/11/02 04:04:39;;;;;;;0.43;0.30;;;11.10;99.90;;;;;;5010686;28;20215;-89
2023/11/02 04:07:25;;;;;;;0.10;0.10;;;11.20;99.90;;;;;;5008577;28;20206;-88
2023/11/02 04:10:00;;;;;;;0.30;0.30;;;11.10;99.90;;;;;;5010071;28;20275;-90
2023/11/02 04:12:44;;;;;;;0.20;0.20;;;11.20;99.90;;;;;;5009615;28;20218;-87
2023/11/02 04:15:15;;;;;;;0.20;0.20;;;11.20;99.90;;;;;;5010685;28;20710;-89
2023/11/02 04:17:42;;;;;;;0.00;0.00;;;11.10;99.90;;;;;;5009521;28;20649;-89
2023/11/02 04:20:08;;;;;;;0.77;0.77;;;11.10;99.90;;;;;;4992377;28;20188;-88
2023/11/02 04:22:34;;;;;;;0.10;0.10;;;11.10;99.90;;;;;;4994033;28;20772;-89
2023/11/02 04:25:00;;;;;;;0.20;0.20;;;11.20;99.90;;;;;;4994652;28;20219;-88
2023/11/02 04:27:26;;;;;;;0.77;0.37;;;11.20;99.90;;;;;;5020467;28;20333;-89
2023/11/02 04:29:52;;;;;;;0.20;0.20;;;11.30;99.90;;;;;;4997117;28;20316;-88
2023/11/02 04:32:17;;;;;;;0.63;0.63;;;11.20;99.90;;;;;;4991808;28;20690;-89
2023/11/02 04:34:43;;;;;;;0.40;0.40;;;11.30;99.90;;;;;;4995228;28;20252;-88
2023/11/02 04:37:16;;;;;;;0.30;0.30;;;11.30;99.90;;;;;;5010828;28;20624;-87
2023/11/02 04:39:43;;;;;;;0.20;0.20;;;11.30;99.90;;;;;;4999207;28;20214;-88
2023/11/02 04:42:09;;;;;;;0.50;0.50;;;11.30;99.90;;;;;;4996200;28;20216;-88
2023/11/02 04:44:35;;;;;;;0.30;0.30;;;11.30;99.90;;;;;;4996507;28;20225;-90
2023/11/02 04:47:01;;;;;;;3.70;0.50;;;11.30;99.90;;;;;;5029643;28;20190;-89
2023/11/02 04:49:27;;;;;;;0.77;0.37;;;11.30;99.90;;;;;;5010125;28;20191;-88
2023/11/02 04:51:59;;;;;;;0.40;0.40;;;11.20;99.90;;;;;;5012546;28;20210;-88
2023/11/02 04:54:29;;;;;;;0.93;0.83;;;11.30;99.90;;;;;;5020890;28;20214;-89
2023/11/02 04:56:55;;;;;;;0.70;0.70;;;11.20;99.90;;;;;;5046304;28;20206;-92
2023/11/02 04:59:22;;;;;;;0.17;0.17;;;11.20;99.90;;;;;;5005959;28;20260;-88
2023/11/02 05:01:48;;;;;;;5.13;0.67;;;11.20;99.90;;;;;;5013181;28;20187;-89
2023/11/02 05:04:14;;;;;;;0.13;0.13;;;11.20;99.90;;;;;;5015090;28;20217;-88
2023/11/02 05:06:41;;;;;;;0.10;0.10;;;11.20;99.90;;;;;;5007021;28;20301;-87
2023/11/02 05:09:07;;;;;;;0.30;0.23;;;11.20;99.90;;;;;;5012422;28;20691;-89
2023/11/02 05:11:32;;;;;;;0.13;0.13;;;11.20;99.90;;;;;;5012451;28;20264;-91
2023/11/02 05:13:58;;;;;;;0.20;0.20;;;11.20;99.90;;;;;;5012911;28;20559;-90
2023/11/02 05:16:24;;;;;;;0.10;0.10;;;11.20;99.90;;;;;;5021186;28;20233;-88
2023/11/02 05:18:50;;;;;;;0.20;0.20;;;11.20;99.90;;;;;;5029582;28;20202;-89
2023/11/02 05:21:16;;;;;;;0.10;0.10;;;11.20;99.90;;;;;;5013685;28;20308;-88
2023/11/02 05:23:42;;;;;;;0.10;0.10;;;11.10;99.90;;;;;;5029801;28;20240;-89
2023/11/02 05:26:08;;;;;;;0.20;0.20;;;11.20;99.90;;;;;;4996081;28;20685;-89
2023/11/02 05:28:34;;;;;;;0.10;0.10;;;11.20;99.90;;;;;;4997276;28;20194;-88
2023/11/02 05:31:00;;;;;;;0.10;0.10;;;11.20;99.90;;;;;;4996311;28;20218;-90
2023/11/02 05:33:28;;;;;;;0.20;0.20;;;11.20;99.90;;;;;;5028937;28;20209;-90
2023/11/02 05:35:54;;;;;;;0.00;0.00;;;11.20;99.90;;;;;;5012506;28;20226;-89
2023/11/02 05:38:20;;;;;;;0.10;0.10;;;11.20;99.90;;;;;;5022831;28;20291;-88
2023/11/02 05:40:46;;;;;;;0.10;0.10;;;11.30;99.90;;;;;;5029081;28;20193;-89
2023/11/02 05:43:12;;;;;;;0.20;0.20;;;11.30;99.90;;;;;;5012322;28;21384;-90
2023/11/02 05:45:37;;;;;;;1.03;0.63;;;11.40;99.90;;;;;;5014417;28;20210;-89
2023/11/02 05:48:04;;;;;;;0.33;0.33;;;11.40;99.90;;;;;;5017017;28;20634;-89
2023/11/02 05:50:30;;;;;;;1.07;0.27;;;11.40;99.90;;;;;;5000919;28;20846;-89
2023/11/02 05:52:56;;;;;;;1.23;0.70;;;11.40;99.90;;;;;;4999726;28;20228;-89
2023/11/02 05:55:21;;;;;;;1.10;0.90;;;11.40;99.90;;;;;;5000791;28;20220;-90
2023/11/02 05:57:47;;;;;;;0.10;0.10;;;11.40;99.90;;;;;;5000025;28;20225;-89
2023/11/02 06:00:14;;;;;;;0.47;0.47;;;11.40;99.90;;;;;;5015692;28;20245;-89
2023/11/02 06:02:40;;;;;;;0.10;0.10;;;11.40;99.90;;;;;;5032267;28;20215;-89
2023/11/02 06:05:07;;;;;;;0.20;0.20;;;11.40;99.90;;;;;;5032012;28;20214;-88
2023/11/02 06:07:34;;;;;;;0.20;0.20;;;11.40;99.90;;;;;;5032621;28;20663;-88
2023/11/02 06:10:00;;;;;;;0.10;0.10;;;11.30;99.90;;;;;;5031743;28;20237;-90
2023/11/02 06:12:26;;;;;;;0.13;0.13;;;11.20;99.90;;;;;;5049201;28;20254;-89
2023/11/02 06:14:52;;;;;;;3.37;0.30;;;11.20;99.90;;;;;;5015272;28;20217;-89
2023/11/02 06:17:18;;;;;;;1.60;1.50;;;11.20;99.90;;;;;;4998411;28;20649;-89
2023/11/02 06:19:44;;;;;;;0.20;0.20;;;11.10;99.90;;;;;;4999444;28;20659;-89
2023/11/02 06:22:09;;;;;;;0.97;0.77;;;11.00;99.90;;;;;;5014897;28;20761;-90
2023/11/02 06:24:37;;;;;;;0.10;0.10;;;11.00;99.90;;;;;;4999028;28;20209;-89
2023/11/02 06:27:04;;;;;;;0.10;0.10;;;11.00;99.90;;;;;;5014938;28;20317;-90
2023/11/02 06:29:30;;;;;;;0.10;0.10;;;10.90;99.90;;;;;;5015399;28;20210;-90
2023/11/02 06:31:55;;;;;;;1.40;0.93;;;10.90;99.90;;;;;;5031629;28;20186;-91
2023/11/02 06:34:21;;;;;;;0.30;0.30;;;10.80;99.90;;;;;;5031881;28;20178;-89
2023/11/02 06:36:47;;;;;;;0.40;0.40;;;10.90;99.90;;;;;;4998795;28;20212;-90
2023/11/02 06:39:19;;;;;;;0.20;0.20;;;10.90;99.90;;;;;;5022941;28;20338;-89
2023/11/02 06:41:45;;;;;;;0.10;0.10;;;11.00;99.90;;;;;;4999601;28;20203;-89
2023/11/02 06:44:11;;;;;;;0.20;0.20;;;11.00;99.90;;;;;;5030767;28;20187;-88
2023/11/02 06:46:37;;;;;;;0.30;0.30;;;10.90;99.90;;;;;;5023357;28;20205;-89
2023/11/02 06:49:03;;;;;;;0.20;0.20;;;11.00;99.90;;;;;;4999442;28;20217;-90
2023/11/02 06:51:29;;;;;;;0.30;0.30;;;11.00;99.90;;;;;;5016111;28;20225;-95
2023/11/02 06:53:54;;;;;;;0.53;0.43;;;11.10;99.90;;;;;;4996766;28;20206;-91
2023/11/02 06:56:22;;;;;;;0.17;0.17;;;11.10;99.90;;;;;;4997267;28;20228;-89
2023/11/02 06:58:50;;;;;;;0.20;0.20;;;11.20;99.90;;;;;;4997121;28;20209;-88
2023/11/02 07:01:15;;;;;;;0.27;0.27;;;11.10;99.90;;;;;;4997951;28;20210;-89
2023/11/02 07:03:42;;;;;;;0.10;0.10;;;11.10;99.90;;;;;;5030783;28;20606;-90
2023/11/02 07:06:08;;;;;;;0.30;0.30;;;11.10;99.90;;;;;;5046667;28;20210;-89
2023/11/02 07:08:33;;;;;;;0.10;0.10;;;11.10;99.90;;;;;;4997734;28;20214;-90
2023/11/02 07:11:00;;;;;;;0.40;0.40;;;11.10;99.90;;;;;;5030911;28;20212;-87
2023/11/02 07:13:26;;;;;;;0.40;0.40;;;11.10;99.90;;;;;;5013330;28;20190;-88
2023/11/02 07:15:52;;;;;;;0.20;0.20;;;11.10;99.90;;;;;;5013635;28;20571;-87
2023/11/02 07:18:17;;;;;;;0.07;0.07;;;11.10;99.90;;;;;;5013748;28;20214;-88
2023/11/02 07:20:43;;;;;;;0.10;0.10;;;11.10;99.90;;;;;;4996501;28;20679;-88
2023/11/02 07:23:09;;;;;;;0.10;0.10;;;11.10;99.90;;;;;;5022175;28;20182;-88
2023/11/02 07:25:35;;;;;;;0.57;0.40;;;11.20;99.90;;;;;;5029534;28;20190;-88
2023/11/02 07:28:01;;;;;;;0.13;0.13;;;11.20;99.90;;;;;;5011450;28;20601;-88
2023/11/02 07:30:27;;;;;;;0.10;0.10;;;11.30;99.90;;;;;;5013285;28;20751;-88
2023/11/02 07:32:53;;;;;;;0.53;0.53;;;11.20;99.90;;;;;;5020375;28;20206;-89
2023/11/02 07:35:18;;;;;;;0.47;0.47;;;11.30;99.90;;;;;;4996450;28;20225;-88
2023/11/02 07:37:44;;;;;;;0.40;0.40;;;11.40;99.90;;;;;;5013903;28;20217;-88
2023/11/02 07:40:10;;;;;;;0.20;0.20;;;11.40;99.90;;;;;;4996883;28;20241;-88
2023/11/02 07:42:37;;;;;;;0.20;0.20;;;11.40;99.90;;;;;;5028324;28;20245;-88
2023/11/02 07:45:03;;;;;;;0.40;0.40;;;11.50;99.90;;;;;;5013727;28;20249;-92
2023/11/02 07:47:30;;;;;;;0.30;0.30;;;11.60;99.90;;;;;;5028135;28;20207;-88
2023/11/02 07:49:56;;;;;;;1.30;1.07;;;11.60;99.90;;;;;;4997565;28;20783;-89
2023/11/02 07:52:22;;;;;;;0.10;0.10;;;11.70;99.90;;;;;;5014170;28;20185;-88
2023/11/02 07:54:48;;;;;;;0.30;0.20;;;11.70;99.90;;;;;;4997938;28;20279;-89
2023/11/02 07:57:15;;;;;;;0.20;0.20;;;11.80;99.90;;;;;;4986841;28;20226;-89
2023/11/02 07:59:41;;;;;;;0.03;0.03;;;11.80;99.90;;;;;;5012188;28;20219;-89
2023/11/02 08:02:07;;;;;;;0.40;0.40;;;11.90;99.90;;;;;;4995279;28;20222;-90
2023/11/02 08:04:33;;;;;;;0.20;0.20;;;11.90;99.90;;;;;;5012862;28;20219;-89
2023/11/02 08:06:59;;;;;;;0.20;0.20;;;11.90;99.90;;;;;;5026448;28;20217;-91
2023/11/02 08:09:25;;;;;;;0.30;0.30;;;12.00;99.90;;;;;;4998726;28;20182;-88
2023/11/02 08:11:51;;;;;;;0.20;0.20;;;12.10;99.90;;;;;;5011972;28;20302;-91
2023/11/02 08:14:18;;;;;;;0.20;0.20;;;12.10;99.90;;;;;;5001476;28;20225;-90
2023/11/02 08:16:44;;;;;;;1.27;1.10;;;12.20;99.90;;;;;;5026660;28;20756;-90
2023/11/02 08:19:10;;;;;;;0.20;0.20;;;12.30;99.90;;;;;;5015028;28;20310;-90
2023/11/02 08:21:35;;;;;;;0.20;0.20;;;12.30;99.90;;;;;;4996807;28;20270;-90
2023/11/02 08:24:02;;;;;;;0.10;0.10;;;12.40;99.90;;;;;;5012846;28;20194;-89
2023/11/02 08:26:28;;;;;;;0.37;0.10;;;12.50;99.90;;;;;;5027714;28;20599;-90
2023/11/02 08:28:55;;;;;;;1.03;1.03;;;12.50;99.90;;;;;;5029601;28;20734;-89
2023/11/02 08:31:29;;;;;;;0.10;0.10;;;12.40;99.90;;;;;;4998274;28;20289;-90
2023/11/02 08:33:58;;;;;;;0.60;0.30;;;12.40;99.90;;;;;;5015076;28;20203;-89
2023/11/02 08:36:24;;;;;;;0.20;0.20;;;12.50;99.90;;;;;;5030630;28;20198;-89
2023/11/02 08:38:50;;;;;;;0.20;0.20;;;12.60;99.90;;;;;;4998702;28;20202;-90
2023/11/02 08:41:19;;;;;;;0.60;0.30;;;12.60;99.90;;;;;;4995730;28;20214;-90
2023/11/02 08:43:47;;;;;;;0.33;0.33;;;12.50;99.90;;;;;;5028793;28;20293;-90
2023/11/02 08:46:18;;;;;;;0.10;0.10;;;12.50;99.90;;;;;;4995559;28;20214;-89
2023/11/02 08:48:47;;;;;;;0.73;0.70;;;12.50;99.90;;;;;;5015776;28;20237;-90
2023/11/02 08:51:15;;;;;;;0.20;0.20;;;12.40;99.90;;;;;;5029668;28;20600;-89
2023/11/02 08:53:41;;;;;;;0.20;0.20;;;12.40;99.90;;;;;;5029587;28;20206;-91
2023/11/02 08:56:10;;;;;;;0.40;0.40;;;12.50;99.90;;;;;;5012292;28;20328;-89
2023/11/02 08:58:55;;;;;;;0.20;0.20;;;12.50;99.90;;;;;;5007393;28;20240;-89
2023/11/02 09:01:24;;;;;;;0.20;0.20;;;12.50;99.90;;;;;;5027698;28;20417;-89
2023/11/02 09:03:54;;;;;;;0.30;0.30;;;12.50;99.90;;;;;;5028547;28;20305;-90
2023/11/02 09:06:23;;;;;;;0.00;0.00;;;12.50;99.90;;;;;;5013525;28;20214;-94
2023/11/02 09:08:57;;;;;;;0.57;0.30;;;12.40;99.90;;;;;;5039366;28;20774;-91
2023/11/02 09:11:24;;;;;;;0.30;0.30;;;12.40;99.90;;;;;;5012218;28;20198;-91
2023/11/02 09:13:50;;;;;;;0.40;0.40;;;12.40;99.90;;;;;;5014282;28;20181;-91
2023/11/02 09:16:16;;;;;;;0.30;0.30;;;12.40;99.90;;;;;;5029688;28;20776;-91
2023/11/02 09:18:47;;;;;;;0.33;0.33;;;12.40;99.90;;;;;;4998959;28;20253;-89
2023/11/02 09:21:14;;;;;;;0.20;0.20;;;12.40;99.90;;;;;;5015498;28;20287;-92
2023/11/02 09:23:39;;;;;;;0.43;0.40;;;12.40;99.90;;;;;;5001070;28;20214;-92
2023/11/02 09:26:05;;;;;;;0.23;0.23;;;12.50;99.90;;;;;;5001643;28;20193;-91
2023/11/02 09:28:34;;;;;;;0.20;0.20;;;12.50;99.90;;;;;;5012977;28;20214;-91
2023/11/02 09:31:00;;;;;;;0.20;0.20;;;12.60;99.90;;;;;;5003721;28;20213;-91
2023/11/02 09:33:26;;;;;;;0.93;0.50;;;12.70;99.90;;;;;;4995356;28;20218;-90
2023/11/02 09:35:52;;;;;;;1.30;0.60;;;12.70;99.90;;;;;;5011715;28;20274;-90
2023/11/02 09:38:19;;;;;;;0.30;0.30;;;12.80;99.90;;;;;;4979746;28;20648;-90
2023/11/02 09:40:45;;;;;;;0.20;0.20;;;12.80;99.90;;;;;;4979055;28;20206;-91
2023/11/02 09:43:11;;;;;;;0.30;0.30;;;12.90;99.90;;;;;;4977824;28;20211;-91
2023/11/02 09:45:37;;;;;;;0.30;0.30;;;12.80;99.90;;;;;;4994701;28;20274;-92
2023/11/02 09:48:03;;;;;;;0.47;0.27;;;12.70;99.90;;;;;;5012456;28;20213;-92
2023/11/02 09:50:29;;;;;;;0.30;0.30;;;12.70;99.90;;;;;;5006269;28;20213;-91
2023/11/02 09:52:56;;;;;;;0.60;0.30;;;12.80;99.90;;;;;;5009929;28;20269;-90
2023/11/02 09:55:22;;;;;;;0.30;0.20;;;13.00;99.90;;;;;;5008704;28;20273;-92
2023/11/02 09:57:50;;;;;;;0.20;0.20;;;13.10;99.90;;;;;;5010661;28;20234;-92
2023/11/02 10:00:17;;;;;;;0.30;0.30;;;13.30;99.90;;;;;;4995731;28;20206;-90
2023/11/02 10:02:51;;;;;;;0.27;0.27;;;13.30;99.90;;;;;;4989697;28;20667;-90
2023/11/02 10:05:17;;;;;;;0.37;0.30;;;13.10;99.90;;;;;;5014351;28;20246;-92
2023/11/02 10:07:43;;;;;;;1.33;0.80;;;13.10;99.90;;;;;;5014838;28;20224;-92
2023/11/02 10:10:13;;;;;;;0.20;0.20;;;13.10;99.90;;;;;;4995502;28;20211;-92
2023/11/02 10:12:40;;;;;;;0.33;0.33;;;13.10;99.90;;;;;;5005785;28;20272;-91
2023/11/02 10:15:09;;;;;;;0.47;0.40;;;13.20;99.90;;;;;;5011777;28;20227;-89
2023/11/02 10:17:39;;;;;;;0.73;0.70;;;13.30;99.90;;;;;;4994407;28;20595;-90
2023/11/02 10:20:11;;;;;;;0.20;0.20;;;13.40;99.90;;;;;;4998059;28;20511;-91
2023/11/02 10:22:37;;;;;;;0.67;0.37;;;13.60;99.90;;;;;;4993354;28;20246;-92
2023/11/02 10:25:04;;;;;;;0.57;0.43;;;13.70;99.90;;;;;;4986443;28;20629;-92
2023/11/02 10:27:30;;;;;;;0.17;0.17;;;13.80;99.90;;;;;;4987935;28;20277;-92
2023/11/02 10:29:56;;;;;;;0.40;0.40;;;13.80;99.90;;;;;;5030654;28;20221;-92
2023/11/02 10:32:23;;;;;;;4.03;0.30;;;13.80;99.90;;;;;;4994955;28;20305;-93
2023/11/02 10:34:52;;;;;;;0.83;0.83;;;13.80;99.90;;;;;;4999461;28;20213;-92
2023/11/02 10:37:32;;;;;;;0.30;0.30;;;13.80;99.90;;;;;;5001772;28;20234;-90
2023/11/02 10:39:58;;;;;;;0.37;0.37;;;13.70;99.90;;;;;;5017221;28;20206;-90
2023/11/02 10:42:28;;;;;;;0.13;0.13;;;13.60;99.90;;;;;;5030807;28;20245;-93
2023/11/02 10:44:57;;;;;;;4.07;0.97;;;13.70;99.90;;;;;;5016820;28;20264;-93
2023/11/02 10:47:29;;;;;;;0.10;0.10;;;13.80;99.90;;;;;;5032470;28;20178;-93
2023/11/02 10:49:57;;;;;;;0.20;0.20;;;13.80;99.90;;;;;;5033968;28;20170;-93
2023/11/02 10:52:43;;;;;;;0.50;0.50;;;13.60;99.90;;;;;;5033011;28;20207;-93
2023/11/02 10:55:17;;;;;;;0.50;0.50;;;13.30;99.90;;;;;;5046806;28;20288;-93
2023/11/02 10:57:46;;;;;;;0.77;0.20;;;13.20;99.90;;;;;;5047305;28;20292;-91
2023/11/02 11:00:14;;;;;;;0.10;0.10;;;13.20;99.90;;;;;;5015208;28;20218;-93
2023/11/02 11:02:41;;;;;;;0.20;0.20;;;13.10;99.90;;;;;;5015192;28;20218;-94
2023/11/02 11:05:10;;;;;;;0.20;0.20;;;13.20;99.90;;;;;;5001603;28;20293;-96
2023/11/02 11:07:37;;;;;;;0.30;0.30;;;13.20;99.90;;;;;;4999169;28;20210;-93
2023/11/02 11:10:03;;;;;;;0.13;0.13;;;13.20;99.90;;;;;;5030815;28;20268;-92
2023/11/02 11:12:36;;;;;;;0.20;0.20;;;13.30;99.90;;;;;;5013677;28;20220;-91
2023/11/02 11:15:02;;;;;;;0.10;0.10;;;13.30;99.90;;;;;;5029758;28;20555;-94
2023/11/02 11:17:29;;;;;;;0.10;0.10;;;13.30;99.90;;;;;;4999629;28;20218;-93
2023/11/02 11:19:55;;;;;;;0.30;0.30;;;13.40;99.90;;;;;;5030570;28;20228;-92
2023/11/02 11:22:29;;;;;;;8.23;0.40;;;13.50;99.90;;;;;;5013643;28;20241;-93
2023/11/02 11:24:56;;;;;;;0.37;0.37;;;13.60;99.90;;;;;;5028547;28;20229;-91
2023/11/02 11:27:36;;;;;;;0.10;0.10;;;13.70;99.90;;;;;;5027862;28;20914;-90
2023/11/02 11:30:04;;;;;;;0.80;0.40;;;13.80;99.90;;;;;;5030082;28;20720;-91
2023/11/02 11:32:40;;;;;;;0.37;0.37;;;13.80;99.90;;;;;;5014609;28;20215;-93
2023/11/02 11:35:09;;;;;;;0.17;0.17;;;14.00;99.90;;;;;;5037751;28;20201;-93
2023/11/02 11:40:20;;;;;;;0.20;0.20;;;14.20;99.90;;;;;;5029701;28;20286;-93
2023/11/02 11:43:01;;;;;;;0.57;0.57;;;14.10;99.90;;;;;;5028631;28;20256;-89
2023/11/02 11:45:37;;;;;;;0.20;0.20;;;14.10;99.90;;;;;;5047111;28;20753;-92
2023/11/02 11:48:10;;;;;;;0.10;0.10;;;14.10;99.90;;;;;;5029937;28;20244;-92
2023/11/02 11:50:38;;;;;;;0.10;0.10;;;14.10;99.90;;;;;;5013579;28;20197;-92
2023/11/02 11:53:08;;;;;;;0.17;0.17;;;14.10;99.90;;;;;;5030899;28;21085;-93
2023/11/02 11:55:37;;;;;;;0.20;0.20;;;14.10;99.90;;;;;;5030205;28;20295;-93
2023/11/02 11:58:06;;;;;;;5.00;0.80;;;14.10;99.90;;;;;;4997097;28;20214;-90
2023/11/02 12:00:32;;;;;;;0.20;0.20;;;14.10;99.90;;;;;;5036110;28;20292;-90
2023/11/02 12:03:04;;;;;;;2.93;0.50;;;14.20;99.90;;;;;;4995776;28;20847;-90
2023/11/02 12:05:44;;;;;;;0.47;0.47;;;14.30;99.90;;;;;;4998523;28;20661;-91
2023/11/02 12:08:11;;;;;;;0.20;0.20;;;14.40;99.90;;;;;;5044950;28;20214;-92
2023/11/02 12:10:45;;;;;;;0.97;0.97;;;14.40;99.90;;;;;;5027341;28;20766;-89
2023/11/02 12:13:12;;;;;;;1.17;1.10;;;14.50;99.90;;;;;;5028516;28;20198;-92
2023/11/02 12:15:52;;;;;;;0.10;0.10;;;14.50;99.90;;;;;;4995926;28;20222;-91
2023/11/02 12:18:21;;;;;;;0.10;0.10;;;14.50;99.90;;;;;;5010771;28;20210;-93
2023/11/02 12:20:46;;;;;;;0.03;0.03;;;14.60;99.90;;;;;;5026817;28;20985;-90
2023/11/02 12:23:16;;;;;;;0.40;0.20;;;14.50;99.90;;;;;;5030455;28;20192;-91
2023/11/02 12:25:41;;;;;;;0.17;0.17;;;14.50;99.90;;;;;;4998308;28;20210;-90
2023/11/02 12:28:11;;;;;;;0.23;0.20;;;14.50;99.90;;;;;;5011568;28;20307;-90
2023/11/02 12:30:44;;;;;;;0.47;0.47;;;14.50;99.90;;;;;;5011985;28;20300;-93
2023/11/02 12:33:18;;;;;;;0.60;0.20;;;14.50;99.90;;;;;;5012557;28;20225;-93
2023/11/02 12:35:44;;;;;;;0.13;0.13;;;14.50;99.90;;;;;;5036323;28;20220;-90
2023/11/02 12:38:10;;;;;;;1.50;1.37;;;14.60;99.90;;;;;;5029499;28;20179;-90
2023/11/02 12:40:51;;;;;;;1.07;1.07;;;14.70;99.90;;;;;;4995844;28;20220;-91
2023/11/02 12:43:23;;;;;;;0.23;0.23;;;14.70;99.90;;;;;;5028288;28;20218;-93
2023/11/02 12:45:54;;;;;;;0.20;0.20;;;14.70;99.90;;;;;;5013147;28;20689;-90
2023/11/02 12:48:32;;;;;;;0.20;0.20;;;14.70;99.90;;;;;;5029275;28;20583;-90
2023/11/02 12:51:18;;;;;;;0.50;0.30;;;14.70;99.90;;;;;;5011875;28;20222;-90
2023/11/02 12:53:46;;;;;;;0.20;0.20;;;14.70;99.90;;;;;;5044882;28;20214;-88
2023/11/02 12:56:23;;;;;;;0.33;0.33;;;14.60;99.90;;;;;;5031237;28;20213;-91
2023/11/02 12:59:05;;;;;;;0.37;0.37;;;14.50;99.90;;;;;;5033480;28;20285;-91
2023/11/02 13:01:53;;;;;;;0.20;0.20;;;14.30;99.90;;;;;;5022932;28;20237;-93
2023/11/02 13:04:24;;;;;;;0.23;0.23;;;14.20;99.90;;;;;;5047663;28;20860;-89
2023/11/02 13:06:53;;;;;;;0.20;0.20;;;14.00;99.90;;;;;;5015215;28;20653;-91
2023/11/02 13:09:22;;;;;;;0.10;0.10;;;13.60;99.90;;;;;;5015358;28;20221;-90
2023/11/02 13:11:54;;;;;;;0.23;0.20;;;13.10;99.90;;;;;;5016183;28;20554;-90
2023/11/02 13:14:24;;;;;;;0.23;0.23;;;13.00;99.90;;;;;;5033220;28;20630;-89
2023/11/02 13:16:53;;;;;;;1.60;0.50;;;12.90;99.90;;;;;;5041500;28;20256;-90